createdAt,value
2018-09-13T00:02:24.857Z,16.17
2018-09-13T00:04:53.181Z,17.47
2018-09-13T00:07:21.483Z,18.27
2018-09-13T00:09:49.815Z,15.50
2018-09-13T00:12:18.137Z,15.13
2018-09-13T00:14:46.417Z,17.80
2018-09-13T00:17:14.777Z,16.37
2018-09-13T00:19:43.070Z,16.60
2018-09-13T00:22:11.433Z,14.77
2018-09-13T00:24:39.742Z,17.10
2018-09-13T00:27:08.076Z,16.50
2018-09-13T00:29:36.427Z,15.07
2018-09-13T00:32:04.740Z,16.27
2018-09-13T00:34:33.069Z,20.73
2018-09-13T00:37:01.386Z,16.57
2018-09-13T00:39:29.680Z,16.33
2018-09-13T00:41:57.989Z,14.93
2018-09-13T00:44:27.015Z,16.63
2018-09-13T00:46:55.301Z,14.10
2018-09-13T00:49:23.601Z,14.37
2018-09-13T00:51:51.893Z,15.50
2018-09-13T00:54:20.157Z,16.23
2018-09-13T00:56:48.445Z,16.00
2018-09-13T00:59:16.716Z,14.73
2018-09-13T01:01:45.007Z,13.93
2018-09-13T01:04:13.304Z,17.87
2018-09-13T01:06:41.603Z,17.70
2018-09-13T01:09:10.649Z,15.27
2018-09-13T01:11:38.984Z,19.37
2018-09-13T01:14:07.282Z,19.50
2018-09-13T01:16:35.582Z,16.67
2018-09-13T01:19:03.929Z,15.07
2018-09-13T01:21:32.256Z,16.23
2018-09-13T01:24:00.565Z,17.83
2018-09-13T01:26:28.989Z,16.60
2018-09-13T01:28:57.327Z,18.03
2018-09-13T01:31:25.625Z,17.63
2018-09-13T01:33:53.936Z,13.90
2018-09-13T01:36:22.250Z,13.53
2018-09-13T01:38:50.568Z,14.40
2018-09-13T01:41:18.880Z,15.13
2018-09-13T01:43:47.174Z,17.20
2018-09-13T01:46:15.487Z,17.03
2018-09-13T01:48:43.784Z,15.23
2018-09-13T01:51:12.088Z,13.70
2018-09-13T01:53:40.452Z,13.67
2018-09-13T01:56:08.764Z,14.63
2018-09-13T01:58:37.094Z,12.90
2018-09-13T02:01:05.474Z,16.13
2018-09-13T02:03:34.396Z,15.40
2018-09-13T02:06:02.711Z,13.80
2018-09-13T02:08:31.052Z,15.30
2018-09-13T02:11:00.266Z,14.87
2018-09-13T02:13:28.654Z,13.47
2018-09-13T02:15:56.978Z,15.13
2018-09-13T02:18:25.282Z,16.63
2018-09-13T02:20:53.569Z,16.50
2018-09-13T02:23:21.922Z,16.07
2018-09-13T02:25:50.226Z,17.00
2018-09-13T02:28:18.556Z,13.33
2018-09-13T02:30:46.860Z,12.90
2018-09-13T02:33:15.275Z,14.10
2018-09-13T02:35:43.598Z,12.90
2018-09-13T02:38:11.918Z,13.23
2018-09-13T02:40:40.267Z,19.17
2018-09-13T02:43:08.722Z,14.97
2018-09-13T02:45:37.105Z,15.73
2018-09-13T02:48:05.754Z,22.37
2018-09-13T02:50:34.083Z,17.33
2018-09-13T02:53:02.391Z,14.43
2018-09-13T02:55:30.665Z,19.33
2018-09-13T02:57:58.970Z,14.37
2018-09-13T03:00:27.292Z,13.37
2018-09-13T03:02:55.729Z,15.73
2018-09-13T03:05:24.129Z,18.33
2018-09-13T03:07:52.470Z,16.90
2018-09-13T03:10:20.802Z,18.50
2018-09-13T03:12:49.108Z,15.70
2018-09-13T03:15:17.425Z,15.67
2018-09-13T03:17:45.773Z,21.47
2018-09-13T03:20:14.165Z,16.30
2018-09-13T03:22:42.527Z,20.73
2018-09-13T03:25:10.826Z,19.63
2018-09-13T03:27:39.178Z,18.00
2018-09-13T03:30:07.538Z,18.67
2018-09-13T03:32:35.871Z,18.03
2018-09-13T03:35:04.489Z,20.00
2018-09-13T03:37:32.830Z,18.60
2018-09-13T03:40:01.165Z,19.87
2018-09-13T03:42:29.487Z,20.67
2018-09-13T03:44:57.829Z,22.33
2018-09-13T03:47:26.437Z,20.33
2018-09-13T03:49:54.749Z,21.23
2018-09-13T03:52:23.067Z,18.93
2018-09-13T03:54:51.446Z,19.37
2018-09-13T03:57:19.737Z,20.30
2018-09-13T03:59:48.060Z,22.23
2018-09-13T04:02:16.389Z,19.87
2018-09-13T04:04:44.740Z,20.80
2018-09-13T04:07:12.996Z,19.87
2018-09-13T04:09:41.342Z,19.43
2018-09-13T04:12:09.658Z,23.03
2018-09-13T04:14:37.966Z,22.50
2018-09-13T04:17:06.614Z,22.30
2018-09-13T04:19:40.254Z,25.33
2018-09-13T04:22:08.546Z,22.90
2018-09-13T04:24:36.846Z,20.70
2018-09-13T04:27:05.210Z,24.53
2018-09-13T04:29:33.517Z,28.27
2018-09-13T04:32:01.850Z,23.07
2018-09-13T04:34:30.142Z,28.40
2018-09-13T04:36:58.648Z,25.93
2018-09-13T04:39:27.014Z,24.50
2018-09-13T04:41:55.330Z,27.93
2018-09-13T04:44:23.950Z,28.03
2018-09-13T04:46:52.297Z,22.50
2018-09-13T04:49:20.670Z,24.23
2018-09-13T04:51:49.198Z,23.83
2018-09-13T04:54:17.524Z,23.60
2018-09-13T04:56:45.807Z,22.20
2018-09-13T04:59:14.127Z,20.87
2018-09-13T05:01:42.817Z,22.60
2018-09-13T05:04:11.834Z,17.80
2018-09-13T05:06:40.356Z,15.40
2018-09-13T05:09:10.957Z,15.80
2018-09-13T05:11:39.363Z,13.73
2018-09-13T05:14:07.674Z,14.80
2018-09-13T05:16:36.052Z,15.77
2018-09-13T05:19:04.434Z,15.50
2018-09-13T05:21:33.534Z,15.10
2018-09-13T05:24:02.328Z,17.63
2018-09-13T05:26:30.692Z,18.00
2018-09-13T05:28:59.070Z,16.60
2018-09-13T05:31:27.463Z,14.90
2018-09-13T05:33:55.937Z,14.50
2018-09-13T05:36:24.301Z,16.03
2018-09-13T05:38:52.683Z,17.17
2018-09-13T05:41:21.884Z,14.17
2018-09-13T05:43:50.226Z,12.20
2018-09-13T05:46:18.781Z,14.17
2018-09-13T05:48:47.731Z,14.50
2018-09-13T05:51:16.109Z,12.43
2018-09-13T05:53:44.405Z,14.00
2018-09-13T05:56:12.901Z,17.13
2018-09-13T05:58:41.253Z,12.60
2018-09-13T06:01:09.608Z,13.03
2018-09-13T06:03:37.940Z,12.03
2018-09-13T06:06:06.406Z,12.73
2018-09-13T06:08:34.741Z,15.80
2018-09-13T06:11:03.198Z,15.50
2018-09-13T06:13:31.561Z,12.70
2018-09-13T06:15:59.997Z,13.60
2018-09-13T06:18:28.324Z,13.83
2018-09-13T06:20:56.764Z,20.30
2018-09-13T06:23:25.087Z,15.50
2018-09-13T06:25:53.406Z,17.00
2018-09-13T06:28:21.750Z,14.07
2018-09-13T06:30:50.086Z,16.20
2018-09-13T06:33:18.404Z,14.00
2018-09-13T06:35:46.750Z,15.77
2018-09-13T06:38:15.120Z,14.00
2018-09-13T06:40:43.470Z,13.40
2018-09-13T06:43:11.789Z,14.40
2018-09-13T06:45:40.215Z,12.90
2018-09-13T06:48:08.558Z,18.93
2018-09-13T06:50:37.011Z,11.83
2018-09-13T06:53:05.567Z,12.70
2018-09-13T06:55:34.011Z,13.00
2018-09-13T06:58:02.464Z,13.30
2018-09-13T07:00:30.885Z,15.70
2018-09-13T07:02:59.222Z,17.20
2018-09-13T07:05:27.606Z,16.13
2018-09-13T07:07:55.905Z,11.10
2018-09-13T07:10:24.233Z,10.30
2018-09-13T07:12:52.561Z,12.47
2018-09-13T07:15:20.849Z,15.80
2018-09-13T07:17:49.253Z,12.10
2018-09-13T07:20:17.670Z,11.90
2018-09-13T07:22:46.026Z,10.67
2018-09-13T07:25:14.328Z,11.83
2018-09-13T07:27:42.670Z,13.30
2018-09-13T07:30:11.113Z,11.43
2018-09-13T07:32:39.438Z,14.10
2018-09-13T07:35:07.738Z,13.73
2018-09-13T07:37:36.122Z,14.00
2018-09-13T07:40:04.526Z,12.77
2018-09-13T07:42:32.891Z,11.73
2018-09-13T07:45:01.154Z,11.77
2018-09-13T07:47:29.534Z,11.60
2018-09-13T07:49:58.104Z,13.27
2018-09-13T07:52:26.344Z,13.97
2018-09-13T07:54:54.686Z,17.50
2018-09-13T07:57:23.014Z,13.87
2018-09-13T07:59:51.394Z,14.53
2018-09-13T08:02:19.708Z,14.00
2018-09-13T08:04:48.030Z,18.80
2018-09-13T08:07:16.344Z,12.23
2018-09-13T08:09:44.613Z,13.53
2018-09-13T08:12:13.019Z,11.07
2018-09-13T08:14:41.233Z,11.80
2018-09-13T08:17:09.688Z,14.10
2018-09-13T08:19:38.029Z,13.93
2018-09-13T08:22:06.620Z,13.87
2018-09-13T08:24:34.909Z,15.77
2018-09-13T08:27:03.262Z,14.33
2018-09-13T08:29:31.584Z,13.23
2018-09-13T08:32:00.006Z,15.10
2018-09-13T08:34:28.392Z,13.00
2018-09-13T08:36:56.737Z,12.90
2018-09-13T08:39:24.998Z,15.67
2018-09-13T08:41:53.329Z,12.60
2018-09-13T08:44:22.165Z,14.57
2018-09-13T08:46:50.465Z,15.30
2018-09-13T08:49:18.782Z,13.17
2018-09-13T08:51:47.315Z,13.63
2018-09-13T08:54:15.820Z,15.07
2018-09-13T08:56:44.179Z,14.53
2018-09-13T08:59:12.472Z,13.00
2018-09-13T09:01:40.943Z,16.57
2018-09-13T09:04:09.286Z,12.03
2018-09-13T09:06:37.712Z,15.73
2018-09-13T09:09:09.930Z,12.73
2018-09-13T09:11:38.252Z,10.73
2018-09-13T09:14:06.578Z,12.40
2018-09-13T09:16:34.900Z,9.63
2018-09-13T09:19:03.212Z,11.00
2018-09-13T09:21:31.569Z,13.13
2018-09-13T09:23:59.973Z,12.00
2018-09-13T09:26:28.268Z,11.40
2018-09-13T09:28:56.631Z,10.77
2018-09-13T09:31:25.140Z,12.80
2018-09-13T09:33:53.547Z,11.53
2018-09-13T09:36:22.014Z,8.37
2018-09-13T09:38:50.353Z,11.33
2018-09-13T09:41:18.644Z,10.67
2018-09-13T09:43:46.981Z,10.10
2018-09-13T09:46:15.304Z,13.37
2018-09-13T09:48:43.586Z,9.57
2018-09-13T09:51:12.606Z,11.27
2018-09-13T09:53:40.959Z,11.50
2018-09-13T09:56:09.291Z,11.53
2018-09-13T09:58:37.558Z,12.80
2018-09-13T10:01:11.484Z,11.30
2018-09-13T10:03:39.804Z,9.90
2018-09-13T10:06:08.610Z,12.07
2018-09-13T10:08:36.898Z,12.40
2018-09-13T10:11:05.256Z,13.57
2018-09-13T10:13:33.559Z,11.13
2018-09-13T10:16:07.351Z,9.43
2018-09-13T10:18:42.861Z,11.67
2018-09-13T10:21:16.687Z,10.43
2018-09-13T10:23:50.310Z,15.40
2018-09-13T10:26:23.987Z,13.50
2018-09-13T10:28:57.685Z,12.63
2018-09-13T10:31:31.262Z,11.63
2018-09-13T10:34:05.093Z,12.03
2018-09-13T10:36:38.993Z,12.10
2018-09-13T10:39:14.067Z,11.80
2018-09-13T10:41:48.273Z,9.67
2018-09-13T10:44:22.005Z,12.63
2018-09-13T10:46:56.183Z,8.53
2018-09-13T10:49:29.948Z,9.00
2018-09-13T10:52:08.635Z,9.23
2018-09-13T10:54:41.254Z,8.27
2018-09-13T10:57:15.213Z,7.83
2018-09-13T10:59:44.683Z,8.40
2018-09-13T11:02:13.536Z,8.43
2018-09-13T11:04:41.812Z,9.40
2018-09-13T11:07:11.248Z,6.90
2018-09-13T11:09:39.907Z,6.47
2018-09-13T11:12:08.928Z,8.03
2018-09-13T11:14:55.614Z,6.53
2018-09-13T11:17:24.955Z,7.40
2018-09-13T11:19:53.643Z,6.60
2018-09-13T11:22:22.159Z,8.30
2018-09-13T11:24:50.501Z,7.17
2018-09-13T11:27:18.959Z,8.27
2018-09-13T11:29:47.237Z,7.40
2018-09-13T11:32:15.567Z,6.30
2018-09-13T11:34:44.761Z,5.87
2018-09-13T11:37:13.669Z,7.10
2018-09-13T11:39:42.014Z,5.83
2018-09-13T11:42:10.298Z,8.80
2018-09-13T11:44:38.641Z,8.53
2018-09-13T11:47:07.437Z,8.10
2018-09-13T11:49:35.793Z,7.53
2018-09-13T11:52:04.149Z,8.63
2018-09-13T11:54:32.526Z,8.47
2018-09-13T11:57:00.930Z,7.87
2018-09-13T11:59:29.253Z,9.57
2018-09-13T12:01:57.552Z,9.17
2018-09-13T12:04:25.846Z,10.30
2018-09-13T12:06:54.200Z,11.73
2018-09-13T12:09:22.569Z,9.70
2018-09-13T12:11:50.861Z,12.90
2018-09-13T12:14:19.174Z,10.40
2018-09-13T12:16:47.526Z,12.10
2018-09-13T12:19:15.932Z,13.10
2018-09-13T12:21:44.217Z,12.60
2018-09-13T12:24:12.517Z,14.37
2018-09-13T12:26:40.857Z,13.90
2018-09-13T12:29:09.276Z,14.07
2018-09-13T12:31:37.550Z,14.73
2018-09-13T12:34:05.855Z,15.73
2018-09-13T12:36:34.175Z,17.20
2018-09-13T12:39:02.485Z,17.93
2018-09-13T12:41:30.796Z,14.00
2018-09-13T12:43:59.299Z,15.20
2018-09-13T12:46:27.745Z,16.23
2018-09-13T12:48:56.258Z,14.00
2018-09-13T12:51:24.583Z,13.17
2018-09-13T12:53:52.879Z,14.70
2018-09-13T12:56:21.257Z,14.93
2018-09-13T12:58:49.549Z,13.60
2018-09-13T13:01:17.945Z,14.40
2018-09-13T13:03:46.493Z,14.47
2018-09-13T13:06:14.810Z,15.47
2018-09-13T13:08:43.154Z,15.00
2018-09-13T13:11:11.500Z,15.33
2018-09-13T13:13:39.801Z,16.37
2018-09-13T13:16:08.213Z,16.60
2018-09-13T13:18:36.543Z,16.30
2018-09-13T13:21:04.917Z,15.33
2018-09-13T13:23:33.354Z,15.20
2018-09-13T13:26:01.673Z,15.13
2018-09-13T13:28:30.106Z,14.57
2018-09-13T13:30:58.445Z,15.03
2018-09-13T13:33:26.800Z,15.53
2018-09-13T13:35:55.188Z,15.53
2018-09-13T13:38:23.522Z,15.90
2018-09-13T13:40:51.828Z,15.43
2018-09-13T13:43:20.112Z,15.50
2018-09-13T13:45:48.401Z,16.70
2018-09-13T13:48:16.720Z,16.30
2018-09-13T13:50:45.034Z,15.97
2018-09-13T13:53:13.575Z,15.30
2018-09-13T13:55:41.930Z,17.30
2018-09-13T13:58:10.234Z,15.47
2018-09-13T14:00:38.530Z,13.23
2018-09-13T14:03:06.840Z,15.57
2018-09-13T14:05:35.138Z,17.63
2018-09-13T14:08:03.504Z,17.67
2018-09-13T14:10:31.825Z,18.47
2018-09-13T14:13:00.156Z,17.90
2018-09-13T14:15:28.827Z,18.23
2018-09-13T14:17:57.156Z,17.13
2018-09-13T14:20:25.548Z,16.60
2018-09-13T14:22:54.086Z,16.13
2018-09-13T14:25:22.425Z,16.90
2018-09-13T14:27:51.288Z,15.90
2018-09-13T14:30:19.626Z,17.47
2018-09-13T14:32:48.143Z,16.97
2018-09-13T14:35:16.446Z,15.77
2018-09-13T14:37:45.945Z,15.30
2018-09-13T14:40:14.250Z,16.00
2018-09-13T14:42:44.250Z,17.43
2018-09-13T14:45:12.554Z,16.80
2018-09-13T14:47:40.923Z,17.23
2018-09-13T14:50:09.215Z,16.43
2018-09-13T14:52:37.680Z,16.57
2018-09-13T14:55:06.135Z,16.90
2018-09-13T14:57:34.612Z,17.17
2018-09-13T15:00:03.310Z,16.63
2018-09-13T15:02:31.632Z,16.83
2018-09-13T15:05:00.002Z,17.40
2018-09-13T15:07:28.380Z,16.63
2018-09-13T15:09:56.655Z,15.93
2018-09-13T15:12:25.157Z,17.77
2018-09-13T15:14:53.454Z,16.77
2018-09-13T15:17:21.920Z,17.73
2018-09-13T15:19:50.533Z,17.90
2018-09-13T15:22:19.198Z,18.13
2018-09-13T15:24:47.618Z,19.20
2018-09-13T15:27:15.905Z,18.60
2018-09-13T15:29:44.303Z,18.27
2018-09-13T15:32:12.622Z,18.50
2018-09-13T15:34:40.946Z,16.77
2018-09-13T15:37:09.509Z,17.53
2018-09-13T15:39:38.778Z,20.50
2018-09-13T15:42:08.128Z,17.23
2018-09-13T15:44:36.458Z,15.50
2018-09-13T15:47:05.244Z,18.10
2018-09-13T15:49:33.544Z,18.73
2018-09-13T15:52:01.910Z,18.43
2018-09-13T15:54:30.233Z,18.07
2018-09-13T15:56:58.629Z,17.50
2018-09-13T15:59:27.057Z,20.27
2018-09-13T16:01:55.375Z,22.57
2018-09-13T16:04:23.854Z,20.77
2018-09-13T16:06:52.188Z,21.30
2018-09-13T16:09:20.493Z,18.97
2018-09-13T16:11:48.994Z,22.80
2018-09-13T16:14:17.387Z,21.00
2018-09-13T16:16:45.806Z,23.17
2018-09-13T16:19:14.100Z,19.20
2018-09-13T16:21:42.878Z,19.13
2018-09-13T16:24:12.286Z,18.60
2018-09-13T16:26:40.604Z,19.87
2018-09-13T16:29:08.942Z,18.20
2018-09-13T16:31:37.988Z,20.93
2018-09-13T16:34:08.369Z,21.37
2018-09-13T16:36:38.300Z,21.60
2018-09-13T16:39:21.866Z,22.07
2018-09-13T16:41:55.586Z,22.57
2018-09-13T16:44:29.268Z,23.13
2018-09-13T16:47:05.966Z,24.00
2018-09-13T16:49:35.514Z,37.93
2018-09-13T16:52:03.876Z,26.10
2018-09-13T16:54:32.248Z,33.17
2018-09-13T16:57:00.891Z,47.17
2018-09-13T16:59:29.244Z,51.63
2018-09-13T17:01:57.664Z,65.47
2018-09-13T17:04:26.422Z,44.07
2018-09-13T17:06:54.798Z,24.70
2018-09-13T17:09:23.516Z,29.93
2018-09-13T17:11:51.799Z,150.57
2018-09-13T17:14:20.132Z,162.87
2018-09-13T17:16:48.974Z,39.27
2018-09-13T17:19:17.269Z,39.07
2018-09-13T17:21:45.581Z,29.67
2018-09-13T17:24:13.911Z,25.27
2018-09-13T17:26:42.260Z,40.37
2018-09-13T17:29:10.557Z,21.90
2018-09-13T17:31:39.053Z,24.37
2018-09-13T17:34:07.505Z,26.47
2018-09-13T17:36:35.743Z,22.37
2018-09-13T17:39:06.306Z,29.60
2018-09-13T17:41:34.680Z,28.77
2018-09-13T17:44:03.131Z,26.10
2018-09-13T17:46:31.428Z,21.20
2018-09-13T17:49:00.000Z,19.60
2018-09-13T17:51:28.430Z,23.20
2018-09-13T17:53:56.887Z,18.80
2018-09-13T17:56:25.293Z,21.77
2018-09-13T17:58:53.630Z,19.70
2018-09-13T18:01:21.989Z,20.00
2018-09-13T18:03:50.379Z,19.10
2018-09-13T18:06:18.751Z,20.40
2018-09-13T18:08:47.100Z,21.67
2018-09-13T18:11:15.734Z,21.20
2018-09-13T18:13:44.062Z,19.67
2018-09-13T18:16:12.375Z,20.77
2018-09-13T18:18:40.698Z,17.10
2018-09-13T18:21:09.345Z,17.90
2018-09-13T18:23:37.727Z,17.87
2018-09-13T18:26:06.030Z,18.70
2018-09-13T18:28:34.411Z,17.40
2018-09-13T18:31:03.268Z,15.60
2018-09-13T18:33:31.598Z,19.30
2018-09-13T18:36:01.442Z,17.40
2018-09-13T18:38:29.819Z,15.97
2018-09-13T18:40:58.267Z,16.80
2018-09-13T18:43:26.754Z,15.20
2018-09-13T18:45:55.430Z,17.93
2018-09-13T18:48:23.796Z,20.63
2018-09-13T18:50:52.151Z,17.90
2018-09-13T18:53:20.518Z,20.13
2018-09-13T18:55:48.893Z,16.80
2018-09-13T18:58:17.260Z,17.40
2018-09-13T19:00:45.578Z,17.83
2018-09-13T19:03:13.989Z,19.23
2018-09-13T19:05:42.787Z,16.80
2018-09-13T19:08:11.570Z,16.73
2018-09-13T19:10:39.902Z,19.43
2018-09-13T19:13:08.243Z,18.47
2018-09-13T19:15:37.011Z,17.93
2018-09-13T19:18:05.312Z,18.33
2018-09-13T19:20:33.709Z,16.93
2018-09-13T19:23:02.235Z,17.50
2018-09-13T19:25:30.706Z,16.77
2018-09-13T19:27:59.232Z,18.43
2018-09-13T19:30:27.542Z,18.37
2018-09-13T19:32:55.965Z,18.60
2018-09-13T19:35:25.692Z,18.00
2018-09-13T19:37:54.055Z,16.63
2018-09-13T19:40:22.392Z,18.80
2018-09-13T19:42:51.475Z,18.93
2018-09-13T19:45:19.796Z,17.53
2018-09-13T19:47:48.424Z,17.20
2018-09-13T19:50:17.062Z,18.30
2018-09-13T19:52:46.414Z,17.57
2018-09-13T19:55:16.934Z,18.93
2018-09-13T19:57:45.278Z,18.27
2018-09-13T20:00:13.582Z,17.50
2018-09-13T20:02:42.039Z,18.33
2018-09-13T20:05:10.498Z,19.63
2018-09-13T20:07:38.848Z,19.30
2018-09-13T20:10:07.220Z,21.50
2018-09-13T20:12:35.525Z,23.03
2018-09-13T20:15:04.153Z,20.40
2018-09-13T20:17:32.482Z,21.00
2018-09-13T20:20:01.908Z,22.40
2018-09-13T20:22:30.313Z,27.13
2018-09-13T20:24:58.587Z,29.23
2018-09-13T20:27:26.923Z,23.00
2018-09-13T20:29:55.346Z,21.43
2018-09-13T20:32:24.002Z,22.23
2018-09-13T20:34:53.091Z,24.60
2018-09-13T20:37:21.517Z,25.40
2018-09-13T20:39:49.909Z,24.80
2018-09-13T20:42:18.359Z,29.17
2018-09-13T20:44:46.749Z,24.97
2018-09-13T20:47:15.073Z,25.73
2018-09-13T20:49:43.369Z,24.60
2018-09-13T20:52:11.769Z,25.03
2018-09-13T20:54:41.180Z,25.60
2018-09-13T20:57:09.601Z,23.87
2018-09-13T20:59:37.825Z,22.23
2018-09-13T21:02:07.561Z,22.67
2018-09-13T21:04:36.240Z,21.67
2018-09-13T21:07:04.562Z,21.97
2018-09-13T21:09:33.881Z,22.77
2018-09-13T21:12:03.791Z,21.73
2018-09-13T21:14:32.272Z,22.53
2018-09-13T21:17:00.581Z,21.93
2018-09-13T21:19:29.516Z,24.70
2018-09-13T21:21:57.883Z,26.13
2018-09-13T21:24:26.354Z,26.13
2018-09-13T21:26:54.767Z,25.77
2018-09-13T21:29:23.111Z,27.30
2018-09-13T21:31:51.437Z,29.50
2018-09-13T21:34:19.765Z,26.90
2018-09-13T21:36:48.129Z,35.60
2018-09-13T21:39:16.473Z,28.10
2018-09-13T21:41:44.897Z,28.30
2018-09-13T21:44:13.423Z,27.80
2018-09-13T21:46:41.934Z,22.77
2018-09-13T21:49:10.820Z,26.93
2018-09-13T21:51:39.452Z,24.77
2018-09-13T21:54:07.765Z,25.73
2018-09-13T21:56:36.093Z,26.00
2018-09-13T21:59:04.500Z,29.03
2018-09-13T22:01:32.801Z,22.83
2018-09-13T22:04:01.141Z,27.27
2018-09-13T22:06:29.467Z,31.43
2018-09-13T22:08:57.778Z,39.13
2018-09-13T22:11:26.374Z,40.03
2018-09-13T22:13:54.561Z,28.37
2018-09-13T22:16:22.929Z,22.97
2018-09-13T22:18:51.313Z,30.43
2018-09-13T22:21:19.784Z,32.67
2018-09-13T22:23:48.101Z,31.10
2018-09-13T22:26:16.449Z,32.80
2018-09-13T22:28:44.926Z,30.10
2018-09-13T22:31:13.915Z,27.67
2018-09-13T22:33:42.376Z,28.33
2018-09-13T22:36:11.941Z,38.50
2018-09-13T22:38:41.233Z,37.43
2018-09-13T22:41:09.514Z,34.60
2018-09-13T22:43:43.360Z,32.13
2018-09-13T22:46:11.722Z,30.77
2018-09-13T22:48:40.047Z,28.93
2018-09-13T22:51:08.546Z,35.70
2018-09-13T22:53:36.891Z,38.37
2018-09-13T22:56:05.370Z,32.80
2018-09-13T22:58:33.714Z,29.43
2018-09-13T23:01:02.026Z,29.77
2018-09-13T23:03:30.369Z,33.07
2018-09-13T23:05:58.689Z,33.33
2018-09-13T23:08:27.127Z,25.97
2018-09-13T23:10:55.933Z,24.97
2018-09-13T23:13:24.597Z,23.60
2018-09-13T23:15:52.958Z,23.90
2018-09-13T23:18:21.301Z,25.53
2018-09-13T23:20:49.788Z,24.07
2018-09-13T23:23:18.536Z,23.57
2018-09-13T23:25:49.153Z,24.03
2018-09-13T23:28:18.699Z,25.17
2018-09-13T23:30:47.099Z,22.03
2018-09-13T23:33:15.415Z,22.70
2018-09-13T23:35:43.779Z,27.00
2018-09-13T23:38:13.101Z,32.03
2018-09-13T23:40:41.738Z,30.60
2018-09-13T23:43:09.917Z,31.97
2018-09-13T23:45:38.254Z,28.80
2018-09-13T23:48:06.583Z,35.57
2018-09-13T23:50:34.885Z,21.57
2018-09-13T23:53:03.210Z,22.33
2018-09-13T23:55:32.322Z,25.27
2018-09-13T23:58:00.599Z,26.93
